CEB311 RCTP-RPLL
Flight info
| Callsign | CEB311 |
|---|---|
| Flight time | N/A |
| Altitude | 36000 |
| Route | TINHO1A TINHO Q11 TACLE/N0456F380 Q11 POTIB M646 LAO/N0453F370 B462 CAB CAB5R |
| Aircraft | A21N/M-SDE2E3FGHIRWXY/LB1 |
Departure
| Time | 2026-05-05 21:20 |
|---|---|
| Airport | Taiwan Taoyuan International Airport (RCTP) |
Arrival
| Time | N/A |
|---|---|
| Airport | Ninoy Aquino International Airport (RPLL) |
| Time | Latitude | Longitude | Altitude | Speed | Heading |
|---|---|---|---|---|---|
| 2026-05-05 21:01 | 25.07556 | 121.23377 | 115 ft | 0 kts | 318° |
| 2026-05-05 21:07 | 25.07552 | 121.23380 | 115 ft | 2 kts | 319° |
| 2026-05-05 21:07 | 25.07541 | 121.23391 | 115 ft | 2 kts | 318° |
| 2026-05-05 21:08 | 25.07530 | 121.23402 | 115 ft | 2 kts | 319° |
| 2026-05-05 21:08 | 25.07519 | 121.23413 | 115 ft | 2 kts | 318° |
| 2026-05-05 21:08 | 25.07507 | 121.23424 | 115 ft | 2 kts | 318° |
| 2026-05-05 21:08 | 25.07496 | 121.23434 | 115 ft | 2 kts | 318° |
| 2026-05-05 21:09 | 25.07489 | 121.23442 | 115 ft | 2 kts | 316° |
| 2026-05-05 21:09 | 25.07480 | 121.23457 | 115 ft | 2 kts | 280° |
| 2026-05-05 21:09 | 25.07480 | 121.23473 | 115 ft | 2 kts | 259° |
| 2026-05-05 21:09 | 25.07485 | 121.23489 | 115 ft | 1 kts | 234° |
| 2026-05-05 21:10 | 25.07489 | 121.23494 | 115 ft | 1 kts | 228° |
| 2026-05-05 21:10 | 25.07491 | 121.23495 | 115 ft | 0 kts | 229° |
| 2026-05-05 21:12 | 25.07482 | 121.23484 | 115 ft | 4 kts | 229° |
| 2026-05-05 21:13 | 25.07460 | 121.23457 | 115 ft | 5 kts | 229° |
| 2026-05-05 21:13 | 25.07428 | 121.23415 | 115 ft | 9 kts | 229° |
| 2026-05-05 21:13 | 25.07372 | 121.23346 | 115 ft | 13 kts | 228° |
| 2026-05-05 21:13 | 25.07309 | 121.23268 | 115 ft | 13 kts | 229° |
| 2026-05-05 21:14 | 25.07254 | 121.23198 | 115 ft | 8 kts | 226° |
| 2026-05-05 21:14 | 25.07200 | 121.23183 | 115 ft | 9 kts | 158° |
| 2026-05-05 21:14 | 25.07147 | 121.23229 | 115 ft | 10 kts | 136° |
| 2026-05-05 21:14 | 25.07088 | 121.23273 | 115 ft | 10 kts | 176° |
| 2026-05-05 21:15 | 25.07026 | 121.23228 | 115 ft | 11 kts | 229° |
| 2026-05-05 21:15 | 25.06971 | 121.23158 | 115 ft | 12 kts | 229° |
| 2026-05-05 21:15 | 25.06913 | 121.23085 | 115 ft | 12 kts | 229° |
| 2026-05-05 21:15 | 25.06851 | 121.23007 | 115 ft | 13 kts | 228° |
| 2026-05-05 21:16 | 25.06786 | 121.22926 | 115 ft | 14 kts | 229° |
| 2026-05-05 21:16 | 25.06712 | 121.22832 | 115 ft | 17 kts | 229° |
| 2026-05-05 21:16 | 25.06634 | 121.22733 | 115 ft | 17 kts | 228° |
| 2026-05-05 21:16 | 25.06556 | 121.22635 | 115 ft | 16 kts | 229° |
| 2026-05-05 21:17 | 25.06479 | 121.22536 | 115 ft | 16 kts | 229° |
| 2026-05-05 21:17 | 25.06413 | 121.22453 | 115 ft | 11 kts | 229° |
| 2026-05-05 21:17 | 25.06346 | 121.22416 | 115 ft | 11 kts | 169° |
| 2026-05-05 21:17 | 25.06278 | 121.22468 | 115 ft | 12 kts | 140° |
| 2026-05-05 21:18 | 25.06230 | 121.22517 | 115 ft | 6 kts | 113° |
| 2026-05-05 21:18 | 25.06250 | 121.22562 | 115 ft | 4 kts | 50° |
| 2026-05-05 21:18 | 25.06251 | 121.22562 | 115 ft | 0 kts | 50° |
| 2026-05-05 21:19 | 25.06251 | 121.22563 | 115 ft | 1 kts | 50° |
| 2026-05-05 21:19 | 25.06364 | 121.22706 | 115 ft | 62 kts | 48° |
| 2026-05-05 21:19 | 25.06818 | 121.23282 | 115 ft | 131 kts | 50° |
| 2026-05-05 21:19 | 25.07489 | 121.24129 | 472 ft | 150 kts | 48° |
| 2026-05-05 21:20 | 25.08163 | 121.24989 | 1043 ft | 153 kts | 49° |
| 2026-05-05 21:20 | 25.08848 | 121.25891 | 1645 ft | 155 kts | 50° |
| 2026-05-05 21:21 | 25.09632 | 121.26928 | 2112 ft | 162 kts | 50° |
| 2026-05-05 21:21 | 25.10383 | 121.27921 | 2390 ft | 177 kts | 50° |
| 2026-05-05 21:21 | 25.11216 | 121.29020 | 2702 ft | 193 kts | 50° |
| 2026-05-05 21:21 | 25.12065 | 121.30246 | 3011 ft | 211 kts | 63° |
| 2026-05-05 21:22 | 25.12223 | 121.31914 | 3276 ft | 231 kts | 108° |
| 2026-05-05 21:22 | 25.12222 | 121.31916 | 3276 ft | 231 kts | 108° |
| 2026-05-05 21:22 | 25.11487 | 121.33209 | 3606 ft | 242 kts | 142° |
| 2026-05-05 21:22 | 25.10039 | 121.34216 | 4059 ft | 255 kts | 153° |
| 2026-05-05 21:23 | 25.08461 | 121.35245 | 4574 ft | 270 kts | 149° |
| 2026-05-05 21:23 | 25.06884 | 121.36414 | 5334 ft | 275 kts | 147° |
| 2026-05-05 21:23 | 25.05334 | 121.37680 | 6139 ft | 278 kts | 146° |
| 2026-05-05 21:23 | 25.03805 | 121.39001 | 6919 ft | 282 kts | 144° |
| 2026-05-05 21:24 | 25.02274 | 121.40369 | 7628 ft | 288 kts | 143° |
| 2026-05-05 21:24 | 25.00714 | 121.41791 | 8315 ft | 294 kts | 143° |
| 2026-05-05 21:24 | 24.99125 | 121.43259 | 9003 ft | 300 kts | 143° |
| 2026-05-05 21:24 | 24.97530 | 121.44746 | 9651 ft | 306 kts | 143° |
| 2026-05-05 21:25 | 24.95881 | 121.46287 | 10320 ft | 310 kts | 143° |
| 2026-05-05 21:25 | 24.94210 | 121.47852 | 10728 ft | 325 kts | 143° |
| 2026-05-05 21:25 | 24.92444 | 121.49501 | 11033 ft | 342 kts | 143° |
| 2026-05-05 21:25 | 24.90580 | 121.51246 | 11440 ft | 354 kts | 143° |
| 2026-05-05 21:26 | 24.88681 | 121.53027 | 12076 ft | 358 kts | 144° |
| 2026-05-05 21:26 | 24.86749 | 121.54839 | 12487 ft | 370 kts | 144° |
| 2026-05-05 21:26 | 24.84773 | 121.56686 | 12734 ft | 384 kts | 144° |
| 2026-05-05 21:26 | 24.82673 | 121.58646 | 12977 ft | 399 kts | 144° |
| 2026-05-05 21:27 | 24.80515 | 121.60662 | 13217 ft | 412 kts | 144° |
| 2026-05-05 21:27 | 24.78299 | 121.62732 | 13425 ft | 425 kts | 144° |
| 2026-05-05 21:27 | 24.75981 | 121.64899 | 13671 ft | 436 kts | 144° |
| 2026-05-05 21:27 | 24.73656 | 121.67074 | 14111 ft | 439 kts | 144° |
| 2026-05-05 21:28 | 24.71342 | 121.69239 | 14623 ft | 440 kts | 144° |
| 2026-05-05 21:28 | 24.68980 | 121.71446 | 15112 ft | 441 kts | 144° |
| 2026-05-05 21:28 | 24.66645 | 121.73628 | 15520 ft | 444 kts | 144° |
| 2026-05-05 21:28 | 24.64298 | 121.75818 | 15924 ft | 446 kts | 144° |
| 2026-05-05 21:29 | 24.61892 | 121.78059 | 16318 ft | 449 kts | 144° |
| 2026-05-05 21:29 | 24.59518 | 121.80273 | 16711 ft | 451 kts | 144° |
| 2026-05-05 21:29 | 24.57111 | 121.82517 | 17107 ft | 452 kts | 144° |
| 2026-05-05 21:29 | 24.54679 | 121.84785 | 17461 ft | 454 kts | 144° |
| 2026-05-05 21:30 | 24.52284 | 121.87018 | 17786 ft | 457 kts | 144° |
| 2026-05-05 21:30 | 24.50946 | 121.88264 | 17952 ft | 458 kts | 144° |
| 2026-05-05 21:30 | 24.50360 | 121.88810 | 18020 ft | 459 kts | 144° |
| 2026-05-05 21:30 | 24.47914 | 121.91085 | 18306 ft | 462 kts | 144° |
| 2026-05-05 21:31 | 24.45474 | 121.93354 | 18596 ft | 465 kts | 144° |
| 2026-05-05 21:31 | 24.42982 | 121.95669 | 18858 ft | 468 kts | 144° |
| 2026-05-05 21:31 | 24.40489 | 121.97984 | 19135 ft | 470 kts | 144° |
| 2026-05-05 21:31 | 24.37853 | 122.00160 | 19383 ft | 466 kts | 155° |
| 2026-05-05 21:32 | 24.34882 | 122.01376 | 19620 ft | 455 kts | 173° |
| 2026-05-05 21:32 | 24.31756 | 122.01561 | 19914 ft | 444 kts | 189° |
| 2026-05-05 21:32 | 24.28748 | 122.00826 | 20167 ft | 438 kts | 201° |
| 2026-05-05 21:32 | 24.25826 | 121.99847 | 20407 ft | 441 kts | 202° |
| 2026-05-05 21:33 | 24.22869 | 121.98858 | 20640 ft | 444 kts | 201° |
| 2026-05-05 21:33 | 24.19899 | 121.97873 | 20874 ft | 446 kts | 201° |
| 2026-05-05 21:33 | 24.16878 | 121.96878 | 21131 ft | 447 kts | 201° |
| 2026-05-05 21:33 | 24.13924 | 121.95910 | 21533 ft | 445 kts | 201° |
| 2026-05-05 21:34 | 24.10930 | 121.94935 | 22009 ft | 441 kts | 201° |
| 2026-05-05 21:34 | 24.07973 | 121.93970 | 22255 ft | 443 kts | 201° |
| 2026-05-05 21:34 | 24.05001 | 121.92999 | 22486 ft | 445 kts | 201° |
| 2026-05-05 21:34 | 24.02019 | 121.92028 | 22762 ft | 446 kts | 202° |
| 2026-05-05 21:35 | 23.99040 | 121.91059 | 22991 ft | 448 kts | 202° |
| 2026-05-05 21:35 | 23.96051 | 121.90088 | 23212 ft | 450 kts | 201° |
| 2026-05-05 21:35 | 23.93027 | 121.89105 | 23475 ft | 451 kts | 202° |
| 2026-05-05 21:35 | 23.89986 | 121.88119 | 23766 ft | 452 kts | 202° |
| 2026-05-05 21:36 | 23.86998 | 121.87151 | 24408 ft | 444 kts | 202° |
| 2026-05-05 21:36 | 23.84063 | 121.86202 | 25212 ft | 433 kts | 202° |
| 2026-05-05 21:36 | 23.81206 | 121.85279 | 25927 ft | 425 kts | 202° |
| 2026-05-05 21:36 | 23.78372 | 121.84358 | 26312 ft | 425 kts | 202° |
| 2026-05-05 21:37 | 23.75529 | 121.83433 | 26591 ft | 427 kts | 202° |
| 2026-05-05 21:37 | 23.72699 | 121.82514 | 26861 ft | 429 kts | 202° |
| 2026-05-05 21:37 | 23.69781 | 121.81567 | 26963 ft | 436 kts | 202° |
| 2026-05-05 21:37 | 23.66872 | 121.80621 | 27069 ft | 441 kts | 202° |
| 2026-05-05 21:38 | 23.63901 | 121.79659 | 27177 ft | 446 kts | 202° |
| 2026-05-05 21:38 | 23.60882 | 121.78684 | 27276 ft | 451 kts | 202° |
| 2026-05-05 21:38 | 23.57833 | 121.77698 | 27366 ft | 456 kts | 202° |
| 2026-05-05 21:38 | 23.54767 | 121.76707 | 27463 ft | 460 kts | 202° |
| 2026-05-05 21:39 | 23.51714 | 121.75717 | 27544 ft | 464 kts | 202° |
| 2026-05-05 21:39 | 23.48558 | 121.74695 | 27624 ft | 467 kts | 202° |
| 2026-05-05 21:39 | 23.45437 | 121.73686 | 27990 ft | 464 kts | 202° |
| 2026-05-05 21:39 | 23.42395 | 121.72707 | 28706 ft | 453 kts | 202° |
| 2026-05-05 21:40 | 23.39403 | 121.71745 | 29361 ft | 445 kts | 202° |
| 2026-05-05 21:40 | 23.36417 | 121.70782 | 29716 ft | 443 kts | 202° |
| 2026-05-05 21:40 | 23.33463 | 121.69827 | 29926 ft | 445 kts | 202° |
| 2026-05-05 21:40 | 23.30447 | 121.68853 | 30130 ft | 447 kts | 202° |
| 2026-05-05 21:41 | 23.27464 | 121.67890 | 30344 ft | 448 kts | 202° |
| 2026-05-05 21:41 | 23.24463 | 121.66924 | 30569 ft | 449 kts | 202° |
| 2026-05-05 21:41 | 23.21445 | 121.65953 | 30765 ft | 450 kts | 202° |
| 2026-05-05 21:41 | 23.18472 | 121.64996 | 30990 ft | 450 kts | 202° |
| 2026-05-05 21:42 | 23.15433 | 121.64023 | 31572 ft | 442 kts | 202° |
| 2026-05-05 21:42 | 23.12520 | 121.63095 | 32445 ft | 428 kts | 203° |
| 2026-05-05 21:42 | 23.09676 | 121.62188 | 33178 ft | 418 kts | 203° |
| 2026-05-05 21:42 | 23.06890 | 121.61291 | 33641 ft | 414 kts | 204° |
| 2026-05-05 21:43 | 23.04127 | 121.60399 | 33919 ft | 414 kts | 204° |
| 2026-05-05 21:43 | 23.01326 | 121.59495 | 34176 ft | 415 kts | 204° |
| 2026-05-05 21:43 | 22.98572 | 121.58611 | 34460 ft | 415 kts | 204° |
| 2026-05-05 21:43 | 22.95792 | 121.57720 | 34683 ft | 417 kts | 204° |
| 2026-05-05 21:44 | 22.93015 | 121.56831 | 34896 ft | 418 kts | 204° |
| 2026-05-05 21:44 | 22.90198 | 121.55931 | 35150 ft | 418 kts | 204° |
| 2026-05-05 21:44 | 22.87427 | 121.55050 | 35696 ft | 411 kts | 204° |
| 2026-05-05 21:44 | 22.84683 | 121.54175 | 35949 ft | 411 kts | 204° |
| 2026-05-05 21:45 | 22.79080 | 121.52378 | 35958 ft | 422 kts | 204° |
| 2026-05-05 21:45 | 22.73406 | 121.50571 | 35953 ft | 426 kts | 204° |
| 2026-05-05 21:46 | 22.67735 | 121.48704 | 35956 ft | 423 kts | 206° |
| 2026-05-05 21:46 | 22.62242 | 121.46400 | 35960 ft | 421 kts | 209° |
| 2026-05-05 21:47 | 22.56768 | 121.43999 | 35956 ft | 422 kts | 209° |
| 2026-05-05 21:47 | 22.51318 | 121.41605 | 35959 ft | 422 kts | 209° |
| 2026-05-05 21:48 | 22.45830 | 121.39195 | 35946 ft | 423 kts | 209° |
| 2026-05-05 21:48 | 22.40330 | 121.36782 | 35940 ft | 424 kts | 208° |
| 2026-05-05 21:49 | 22.34522 | 121.35120 | 35938 ft | 432 kts | 199° |
| 2026-05-05 21:49 | 22.28614 | 121.33762 | 35932 ft | 433 kts | 199° |
| 2026-05-05 21:50 | 22.22650 | 121.32381 | 35933 ft | 433 kts | 199° |
| 2026-05-05 21:50 | 22.16743 | 121.30999 | 35917 ft | 433 kts | 199° |
| 2026-05-05 21:51 | 22.10830 | 121.29613 | 35912 ft | 433 kts | 199° |
| 2026-05-05 21:51 | 22.04919 | 121.28226 | 35911 ft | 435 kts | 199° |
| 2026-05-05 21:52 | 21.96006 | 121.26135 | 35914 ft | 435 kts | 199° |
| 2026-05-05 21:53 | 21.90036 | 121.24734 | 35910 ft | 434 kts | 199° |
| 2026-05-05 21:53 | 21.84100 | 121.23344 | 35908 ft | 435 kts | 199° |
| 2026-05-05 21:54 | 21.78159 | 121.21953 | 35907 ft | 436 kts | 199° |
| 2026-05-05 21:54 | 21.72201 | 121.20558 | 35908 ft | 436 kts | 199° |
| 2026-05-05 21:55 | 21.66241 | 121.19167 | 35909 ft | 436 kts | 199° |
| 2026-05-05 21:55 | 21.60287 | 121.17776 | 35907 ft | 437 kts | 199° |
| 2026-05-05 21:56 | 21.54314 | 121.16383 | 35909 ft | 437 kts | 199° |
| 2026-05-05 21:56 | 21.48343 | 121.14992 | 35906 ft | 438 kts | 199° |
| 2026-05-05 21:57 | 21.42379 | 121.13603 | 35903 ft | 439 kts | 198° |
| 2026-05-05 21:57 | 21.36391 | 121.12209 | 35892 ft | 438 kts | 198° |
| 2026-05-05 21:58 | 21.30349 | 121.10805 | 35894 ft | 440 kts | 198° |
| 2026-05-05 21:58 | 21.24330 | 121.09409 | 35893 ft | 440 kts | 198° |
| 2026-05-05 21:59 | 21.18327 | 121.08015 | 35892 ft | 440 kts | 198° |
| 2026-05-05 21:59 | 21.12273 | 121.06609 | 35888 ft | 441 kts | 198° |
| 2026-05-05 22:00 | 21.06239 | 121.05213 | 35890 ft | 441 kts | 198° |
| 2026-05-05 22:00 | 21.00193 | 121.03813 | 35888 ft | 440 kts | 198° |
| 2026-05-05 22:01 | 20.94105 | 121.02404 | 35892 ft | 441 kts | 198° |
| 2026-05-05 22:01 | 20.88079 | 121.01011 | 35890 ft | 442 kts | 198° |
| 2026-05-05 22:02 | 20.81989 | 120.99606 | 35888 ft | 442 kts | 198° |
| 2026-05-05 22:02 | 20.75956 | 120.98213 | 35889 ft | 443 kts | 198° |
| 2026-05-05 22:03 | 20.69914 | 120.96821 | 35885 ft | 443 kts | 198° |
| 2026-05-05 22:03 | 20.63833 | 120.95419 | 35881 ft | 442 kts | 198° |
| 2026-05-05 22:04 | 20.57708 | 120.94011 | 35883 ft | 442 kts | 198° |
| 2026-05-05 22:04 | 20.51663 | 120.92621 | 35883 ft | 442 kts | 198° |
| 2026-05-05 22:05 | 20.45637 | 120.91235 | 35881 ft | 443 kts | 197° |
| 2026-05-05 22:05 | 20.39599 | 120.89848 | 35879 ft | 443 kts | 197° |
| 2026-05-05 22:06 | 20.33541 | 120.88459 | 35876 ft | 442 kts | 197° |
| 2026-05-05 22:06 | 20.27493 | 120.87073 | 35878 ft | 442 kts | 197° |
| 2026-05-05 22:07 | 20.21475 | 120.85693 | 35868 ft | 442 kts | 197° |
| 2026-05-05 22:07 | 20.15427 | 120.84312 | 35878 ft | 443 kts | 197° |
| 2026-05-05 22:08 | 20.09360 | 120.82925 | 35877 ft | 443 kts | 197° |
| 2026-05-05 22:08 | 20.03283 | 120.81537 | 35870 ft | 442 kts | 197° |
| 2026-05-05 22:09 | 19.97238 | 120.80158 | 35869 ft | 443 kts | 197° |
| 2026-05-05 22:09 | 19.91147 | 120.78770 | 35862 ft | 444 kts | 197° |
| 2026-05-05 22:10 | 19.85089 | 120.77389 | 35866 ft | 444 kts | 197° |
| 2026-05-05 22:10 | 19.79416 | 120.76096 | 35863 ft | 444 kts | 197° |
| 2026-05-05 22:11 | 19.73361 | 120.74719 | 35865 ft | 444 kts | 197° |
| 2026-05-05 22:11 | 19.67268 | 120.73332 | 35864 ft | 445 kts | 197° |
| 2026-05-05 22:12 | 19.61216 | 120.71955 | 35867 ft | 445 kts | 197° |
| 2026-05-05 22:12 | 19.55130 | 120.70574 | 35871 ft | 445 kts | 196° |
| 2026-05-05 22:13 | 19.49051 | 120.69195 | 35865 ft | 445 kts | 196° |
| 2026-05-05 22:13 | 19.42960 | 120.67814 | 35866 ft | 445 kts | 196° |
| 2026-05-05 22:14 | 19.36833 | 120.66425 | 35862 ft | 446 kts | 196° |
| 2026-05-05 22:14 | 19.30708 | 120.65038 | 35857 ft | 447 kts | 196° |
| 2026-05-05 22:15 | 19.24593 | 120.63656 | 35859 ft | 447 kts | 196° |
| 2026-05-05 22:15 | 19.18481 | 120.62274 | 35862 ft | 447 kts | 196° |
| 2026-05-05 22:16 | 19.12361 | 120.60903 | 35861 ft | 447 kts | 195° |
| 2026-05-05 22:16 | 19.06298 | 120.60007 | 35860 ft | 451 kts | 189° |
| 2026-05-05 22:17 | 19.00001 | 120.59492 | 35862 ft | 451 kts | 188° |
| 2026-05-05 22:17 | 18.94450 | 120.59050 | 35866 ft | 452 kts | 188° |
| 2026-05-05 22:18 | 18.91988 | 120.58855 | 35857 ft | 452 kts | 189° |
| 2026-05-05 22:18 | 18.86259 | 120.58392 | 35853 ft | 451 kts | 188° |
| 2026-05-05 22:19 | 18.79938 | 120.57882 | 35853 ft | 452 kts | 188° |
| 2026-05-05 22:19 | 18.73653 | 120.57378 | 35860 ft | 452 kts | 188° |
| 2026-05-05 22:20 | 18.67333 | 120.56871 | 35878 ft | 451 kts | 188° |
| 2026-05-05 22:20 | 18.61035 | 120.56362 | 35887 ft | 452 kts | 188° |
| 2026-05-05 22:21 | 18.54740 | 120.55856 | 35892 ft | 451 kts | 188° |
| 2026-05-05 22:21 | 18.48450 | 120.55351 | 35898 ft | 452 kts | 188° |
| 2026-05-05 22:22 | 18.42174 | 120.54848 | 35900 ft | 452 kts | 188° |
| 2026-05-05 22:22 | 18.35880 | 120.54346 | 35898 ft | 452 kts | 188° |
| 2026-05-05 22:23 | 18.29567 | 120.53841 | 35902 ft | 452 kts | 188° |
| 2026-05-05 22:23 | 18.23306 | 120.53368 | 35903 ft | 453 kts | 186° |
| 2026-05-05 22:24 | 18.16932 | 120.53424 | 35903 ft | 456 kts | 180° |
| 2026-05-05 22:24 | 18.11234 | 120.54119 | 35905 ft | 459 kts | 174° |
| 2026-05-05 22:25 | 18.04926 | 120.55104 | 35909 ft | 456 kts | 178° |
| 2026-05-05 22:25 | 17.98530 | 120.55603 | 35911 ft | 455 kts | 181° |
| 2026-05-05 22:25 | 17.95374 | 120.55429 | 35910 ft | 450 kts | 192° |
| 2026-05-05 22:26 | 17.92296 | 120.54803 | 35917 ft | 449 kts | 196° |
| 2026-05-05 22:26 | 17.86200 | 120.53303 | 35924 ft | 448 kts | 197° |
| 2026-05-05 22:27 | 17.82219 | 120.52319 | 35901 ft | 447 kts | 197° |
| 2026-05-05 22:27 | 17.76089 | 120.50909 | 35874 ft | 450 kts | 191° |
| 2026-05-05 22:27 | 17.72930 | 120.50826 | 35884 ft | 456 kts | 180° |
| 2026-05-05 22:28 | 17.69727 | 120.51160 | 35896 ft | 458 kts | 176° |
| 2026-05-05 22:28 | 17.63432 | 120.52013 | 35915 ft | 457 kts | 176° |
| 2026-05-05 22:29 | 17.57078 | 120.52877 | 35935 ft | 457 kts | 176° |
| 2026-05-05 22:29 | 17.50734 | 120.53732 | 35943 ft | 457 kts | 176° |
| 2026-05-05 22:30 | 17.44405 | 120.54518 | 35943 ft | 455 kts | 181° |
| 2026-05-05 22:30 | 17.41260 | 120.54306 | 35946 ft | 449 kts | 192° |
| 2026-05-05 22:30 | 17.38177 | 120.53661 | 35955 ft | 448 kts | 196° |
| 2026-05-05 22:31 | 17.32115 | 120.52150 | 35955 ft | 447 kts | 197° |
| 2026-05-05 22:31 | 17.26044 | 120.50593 | 35948 ft | 447 kts | 197° |
| 2026-05-05 22:32 | 17.19955 | 120.49026 | 35935 ft | 447 kts | 197° |
| 2026-05-05 22:32 | 17.13921 | 120.47475 | 35943 ft | 447 kts | 197° |
| 2026-05-05 22:33 | 17.07835 | 120.45911 | 35958 ft | 448 kts | 197° |
| 2026-05-05 22:33 | 17.04725 | 120.45418 | 35955 ft | 452 kts | 186° |
| 2026-05-05 22:33 | 17.01536 | 120.45352 | 35964 ft | 454 kts | 183° |
| 2026-05-05 22:34 | 16.95184 | 120.45449 | 35962 ft | 455 kts | 182° |
| 2026-05-05 22:34 | 16.88822 | 120.45578 | 35968 ft | 454 kts | 182° |
| 2026-05-05 22:35 | 16.82501 | 120.45702 | 35969 ft | 454 kts | 182° |
| 2026-05-05 22:35 | 16.76161 | 120.45819 | 35964 ft | 454 kts | 182° |
| 2026-05-05 22:36 | 16.69787 | 120.45934 | 35971 ft | 454 kts | 182° |
| 2026-05-05 22:36 | 16.63431 | 120.46042 | 35975 ft | 454 kts | 182° |
| 2026-05-05 22:37 | 16.57089 | 120.46139 | 35985 ft | 454 kts | 182° |
| 2026-05-05 22:37 | 16.50716 | 120.46236 | 35982 ft | 454 kts | 182° |
| 2026-05-05 22:38 | 16.44372 | 120.46330 | 35982 ft | 454 kts | 182° |
| 2026-05-05 22:38 | 16.41186 | 120.46376 | 35876 ft | 450 kts | 182° |
| 2026-05-05 22:38 | 16.38088 | 120.46422 | 35396 ft | 447 kts | 182° |
| 2026-05-05 22:38 | 16.34946 | 120.46471 | 34675 ft | 446 kts | 182° |
| 2026-05-05 22:39 | 16.31834 | 120.46519 | 33967 ft | 445 kts | 182° |
| 2026-05-05 22:39 | 16.28740 | 120.46564 | 33185 ft | 446 kts | 182° |
| 2026-05-05 22:39 | 16.25619 | 120.46606 | 32349 ft | 449 kts | 182° |
| 2026-05-05 22:39 | 16.22480 | 120.46751 | 31507 ft | 453 kts | 177° |
| 2026-05-05 22:40 | 16.19332 | 120.47151 | 31114 ft | 455 kts | 175° |
| 2026-05-05 22:40 | 16.16209 | 120.47601 | 30856 ft | 455 kts | 174° |
| 2026-05-05 22:40 | 16.13025 | 120.48064 | 30597 ft | 454 kts | 174° |
| 2026-05-05 22:40 | 16.09913 | 120.48509 | 30344 ft | 453 kts | 174° |
| 2026-05-05 22:41 | 16.06773 | 120.48950 | 30089 ft | 451 kts | 174° |
| 2026-05-05 22:41 | 16.03659 | 120.49382 | 29832 ft | 449 kts | 174° |
| 2026-05-05 22:41 | 16.00536 | 120.49811 | 29572 ft | 447 kts | 174° |
| 2026-05-05 22:41 | 15.97456 | 120.50149 | 29317 ft | 445 kts | 177° |
| 2026-05-05 22:42 | 15.94348 | 120.50378 | 29021 ft | 441 kts | 178° |
| 2026-05-05 22:42 | 15.91268 | 120.50585 | 28246 ft | 445 kts | 178° |
| 2026-05-05 22:42 | 15.88162 | 120.50795 | 26983 ft | 458 kts | 178° |
| 2026-05-05 22:42 | 15.84876 | 120.51025 | 25502 ft | 473 kts | 177° |
| 2026-05-05 22:43 | 15.81574 | 120.51265 | 23946 ft | 488 kts | 177° |
| 2026-05-05 22:43 | 15.78154 | 120.51519 | 22708 ft | 492 kts | 176° |
| 2026-05-05 22:43 | 15.74759 | 120.51777 | 22005 ft | 475 kts | 176° |
| 2026-05-05 22:43 | 15.71510 | 120.52026 | 21108 ft | 465 kts | 176° |
| 2026-05-05 22:44 | 15.68317 | 120.52272 | 20037 ft | 459 kts | 176° |
| 2026-05-05 22:44 | 15.65147 | 120.52515 | 18964 ft | 452 kts | 176° |
| 2026-05-05 22:44 | 15.62015 | 120.52754 | 18058 ft | 443 kts | 176° |
| 2026-05-05 22:44 | 15.58959 | 120.52987 | 17714 ft | 428 kts | 175° |
| 2026-05-05 22:45 | 15.56055 | 120.53210 | 17482 ft | 413 kts | 175° |
| 2026-05-05 22:45 | 15.53219 | 120.53428 | 17244 ft | 400 kts | 175° |
| 2026-05-05 22:45 | 15.50472 | 120.53638 | 17014 ft | 388 kts | 175° |
| 2026-05-05 22:45 | 15.47779 | 120.53844 | 16780 ft | 377 kts | 175° |
| 2026-05-05 22:46 | 15.45173 | 120.54044 | 16546 ft | 367 kts | 175° |
| 2026-05-05 22:46 | 15.42650 | 120.54237 | 16321 ft | 364 kts | 175° |
| 2026-05-05 22:46 | 15.40106 | 120.54431 | 16089 ft | 363 kts | 175° |
| 2026-05-05 22:46 | 15.37564 | 120.54625 | 15898 ft | 362 kts | 175° |
| 2026-05-05 22:47 | 15.35033 | 120.54816 | 15660 ft | 361 kts | 175° |
| 2026-05-05 22:47 | 15.32540 | 120.55007 | 15426 ft | 360 kts | 175° |
| 2026-05-05 22:47 | 15.30013 | 120.55199 | 15195 ft | 359 kts | 175° |
| 2026-05-05 22:47 | 15.27532 | 120.55389 | 14956 ft | 358 kts | 175° |
| 2026-05-05 22:48 | 15.25044 | 120.55578 | 14711 ft | 357 kts | 175° |
| 2026-05-05 22:48 | 15.22550 | 120.55768 | 14476 ft | 355 kts | 175° |
| 2026-05-05 22:48 | 15.20063 | 120.55981 | 14242 ft | 354 kts | 173° |
| 2026-05-05 22:48 | 15.17637 | 120.56322 | 14010 ft | 352 kts | 169° |
| 2026-05-05 22:49 | 15.15208 | 120.56808 | 13776 ft | 351 kts | 167° |
| 2026-05-05 22:49 | 15.12829 | 120.57327 | 13543 ft | 349 kts | 167° |
| 2026-05-05 22:49 | 15.10434 | 120.57855 | 13315 ft | 347 kts | 167° |
| 2026-05-05 22:49 | 15.08076 | 120.58375 | 13083 ft | 345 kts | 167° |
| 2026-05-05 22:50 | 15.05734 | 120.58889 | 12839 ft | 344 kts | 167° |
| 2026-05-05 22:50 | 15.03355 | 120.59412 | 12612 ft | 343 kts | 167° |
| 2026-05-05 22:50 | 15.01014 | 120.59925 | 12366 ft | 341 kts | 167° |
| 2026-05-05 22:50 | 14.98702 | 120.60433 | 12159 ft | 340 kts | 167° |
| 2026-05-05 22:51 | 14.96355 | 120.60947 | 11933 ft | 339 kts | 167° |
| 2026-05-05 22:51 | 14.94034 | 120.61455 | 11695 ft | 338 kts | 167° |
| 2026-05-05 22:51 | 14.91744 | 120.61958 | 11458 ft | 337 kts | 167° |
| 2026-05-05 22:51 | 14.89442 | 120.62462 | 11238 ft | 336 kts | 167° |
| 2026-05-05 22:52 | 14.87132 | 120.62968 | 11013 ft | 334 kts | 166° |
| 2026-05-05 22:52 | 14.84835 | 120.63471 | 10790 ft | 333 kts | 166° |
| 2026-05-05 22:52 | 14.82579 | 120.63966 | 10518 ft | 327 kts | 167° |
| 2026-05-05 22:52 | 14.80373 | 120.64449 | 10199 ft | 321 kts | 167° |
| 2026-05-05 22:53 | 14.78205 | 120.64922 | 9898 ft | 314 kts | 166° |
| 2026-05-05 22:53 | 14.76070 | 120.65390 | 9747 ft | 302 kts | 166° |
| 2026-05-05 22:53 | 14.74042 | 120.65834 | 9624 ft | 292 kts | 166° |
| 2026-05-05 22:53 | 14.72070 | 120.66266 | 9452 ft | 285 kts | 166° |
| 2026-05-05 22:54 | 14.70171 | 120.66681 | 9316 ft | 274 kts | 166° |
| 2026-05-05 22:54 | 14.68318 | 120.67086 | 9188 ft | 266 kts | 166° |
| 2026-05-05 22:54 | 14.66497 | 120.67485 | 9080 ft | 266 kts | 166° |
| 2026-05-05 22:54 | 14.64682 | 120.67882 | 8964 ft | 266 kts | 166° |
| 2026-05-05 22:55 | 14.62865 | 120.68290 | 8855 ft | 265 kts | 163° |
| 2026-05-05 22:55 | 14.61106 | 120.68913 | 8739 ft | 263 kts | 154° |
| 2026-05-05 22:55 | 14.59488 | 120.69770 | 8616 ft | 261 kts | 149° |
| 2026-05-05 22:55 | 14.57903 | 120.70701 | 8482 ft | 261 kts | 148° |
| 2026-05-05 22:56 | 14.54581 | 120.72671 | 8240 ft | 260 kts | 148° |
| 2026-05-05 22:56 | 14.52965 | 120.73431 | 8090 ft | 253 kts | 167° |